»·PEaware :: N520MJ KBUR-KSBA

N520MJ :: KBUR-KSBA

FLIGHT INFORMATION

Flight Status: Arrived
Operator: Privately registered:
United States
More flights under this callsign
Pilot: Manuel P. (9695)
Aircraft: BOMBARDIER BD-100 CHALLENGER 300
(CL30)
More flights by this aircraft type
Origin: KBUR Bob Hope-Burbank
United States
Destination: KSBA Santa Barbara Mun
United States
More flights between these airports :: More routes between these airports
Route: +VNY3 FIM V186 DEANO V27 KWANG
File this flight plan on PilotEdge
Remarks: BURN39 TEC Route
Altitude:
(Current/Filed)
6,000ft
Speed:
(Current/Filed)
400kts
Departed: 15-Aug-17 02:43 PM
Arrived: 15-Aug-17 03:05 PM
Distance/Time
Traveled:
74nm/0:22
Distance/Time
To Go:
Arrived

Flight Plot

Page will automatically refresh every two minutes.


Map Options




Map Legend


Flown Route
Filed Route
Departure Airport
Arrival Airport
Navaid (VOR, NDB)
Fix

Horizontal Profiles

Position Reports

Time Latitude Longitude Heading Altitude Ground
Speed
15-Aug-17 14:22 34.200196 -118.358734 263 784ft 0kts
15-Aug-17 14:23 34.200196 -118.358734 263 784ft 0kts
15-Aug-17 14:24 34.200196 -118.358734 263 784ft 0kts
15-Aug-17 14:25 34.200196 -118.358734 263 784ft 0kts
15-Aug-17 14:26 34.200196 -118.358734 263 784ft 0kts
15-Aug-17 14:27 34.200196 -118.358734 263 784ft 0kts
15-Aug-17 14:28 34.200196 -118.358734 263 784ft 0kts
15-Aug-17 14:29 34.200196 -118.358734 263 784ft 0kts
15-Aug-17 14:30 34.200196 -118.358734 263 784ft 0kts
15-Aug-17 14:31 34.200196 -118.358734 263 784ft 0kts
15-Aug-17 14:32 34.200196 -118.358734 263 784ft 0kts
15-Aug-17 14:33 34.200196 -118.358734 263 784ft 0kts
15-Aug-17 14:34 34.200196 -118.358734 263 784ft 0kts
15-Aug-17 14:35 34.200196 -118.358734 263 784ft 0kts
15-Aug-17 14:36 34.200196 -118.358734 263 784ft 0kts
15-Aug-17 14:37 34.200196 -118.358735 263 784ft 0kts
15-Aug-17 14:38 34.200196 -118.358735 263 784ft 0kts
15-Aug-17 14:39 34.200196 -118.358735 263 784ft 0kts
15-Aug-17 14:40 34.200178 -118.358899 260 784ft 0kts
15-Aug-17 14:41 34.200652 -118.358407 346 783ft 16kts
15-Aug-17 14:42 34.204988 -118.359589 346 784ft 23kts
15-Aug-17 14:43 34.210362 -118.361086 348 784ft 15kts
15-Aug-17 14:44 34.211976 -118.361435 17 784ft 0kts
15-Aug-17 14:45 34.211403 -118.360183 166 784ft 28kts
15-Aug-17 14:46 34.177320 -118.373590 225 2860ft 184kts
15-Aug-17 14:47 34.133489 -118.431491 224 4003ft 256kts
15-Aug-17 14:48 34.128058 -118.501320 312 4732ft 257kts
15-Aug-17 14:49 34.172881 -118.565459 306 6006ft 258kts
15-Aug-17 14:50 34.215084 -118.635463 304 5991ft 244kts
15-Aug-17 14:51 34.253009 -118.701134 303 5996ft 241kts
15-Aug-17 14:52 34.279349 -118.771293 272 5992ft 233kts
15-Aug-17 14:53 34.282763 -118.851521 272 5987ft 248kts
15-Aug-17 14:54 34.286383 -118.937290 273 5981ft 258kts
15-Aug-17 14:55 34.289831 -119.020206 273 5979ft 236kts
15-Aug-17 14:57 34.292962 -119.097451 273 5980ft 232kts
15-Aug-17 14:58 34.296120 -119.176478 273 5994ft 241kts
15-Aug-17 14:59 34.299489 -119.261235 273 5990ft 262kts
15-Aug-17 15:00 34.302901 -119.349333 273 5980ft 253kts
15-Aug-17 15:01 34.312091 -119.430516 292 4678ft 247kts
15-Aug-17 15:02 34.338340 -119.506097 292 2974ft 225kts
15-Aug-17 15:03 34.367526 -119.562677 310 2968ft 184kts
15-Aug-17 15:04 34.396279 -119.616571 290 2861ft 205kts
15-Aug-17 15:05 34.413628 -119.683290 281 2374ft 210kts
15-Aug-17 15:06 34.426742 -119.744135 279 1603ft 165kts
15-Aug-17 15:07 34.428687 -119.792104 267 662ft 130kts
15-Aug-17 15:08 34.427883 -119.835839 265 28ft 130kts
15-Aug-17 15:09 34.427090 -119.846350 185 20ft 0kts
15-Aug-17 15:10 34.426610 -119.843868 87 20ft 19kts
15-Aug-17 15:11 34.426683 -119.839013 90 20ft 13kts
15-Aug-17 15:12 34.424138 -119.837507 166 20ft 16kts
15-Aug-17 15:13 34.422912 -119.836188 350 20ft 0kts
15-Aug-17 15:14 34.422912 -119.836188 350 20ft 0kts
15-Aug-17 15:15 34.422912 -119.836188 350 20ft 0kts
15-Aug-17 15:16 34.422912 -119.836188 350 20ft 0kts
15-Aug-17 15:17 34.422912 -119.836188 350 20ft 0kts
15-Aug-17 15:18 34.422912 -119.836188 350 20ft 0kts
15-Aug-17 15:19 34.422912 -119.836188 350 20ft 0kts
15-Aug-17 15:20 34.422912 -119.836188 350 20ft 0kts
15-Aug-17 15:21 34.422912 -119.836188 350 20ft 0kts
15-Aug-17 15:22 34.422912 -119.836188 350 20ft 0kts
15-Aug-17 15:23 34.422912 -119.836188 350 20ft 0kts

Navigation Log

Ident Type
1. KBUR Airport
2. IPIHO Fix
3. SUANA Fix
4. FIM Navaid
5. HENER Fix
6. DEANO Fix
7. KWANG Fix
8. KSBA Airport